Dana Pride — WE00 — position and weather

sailwx.info

Track history (hours):
 
Tides and Currents Weather Stations Pressure Air Temp Water Temp Dewpoint Dewpoint Depression Visibility Wind Speed Wind Dir Waves Ship Positions

Dana Pride

Last reported at 2017-Dec-10 22:14 UTC. Time now 2017-Dec-11 11:27 UTC.
Position N 33°26' W 117°43'.

Type: Fishing. MMSI: 366849310.

Date/timePositionNaut miles runAvg speedWind from/ knotsBaromVisibWave heightAir tempDewpointWater temp
2017-Dec-10 22:14N 33°26' W 117°43'0 0.2
2017-Dec-10 20:35N 33°26' W 117°43'111.0
2017-Dec-10 20:30N 33°27' W 117°42'4 2.7
2017-Dec-10 19:11N 33°25' W 117°46'212.1
2017-Dec-10 18:59N 33°24' W 117°45'0 0.5
2017-Dec-10 18:30N 33°23' W 117°45'5 9.9
2017-Dec-10 18:00N 33°28' W 117°42'0 0.0
2017-Dec-10 17:30N 33°28' W 117°42'0 0.0
2017-Dec-10 16:59N 33°28' W 117°42'0 0.0
2017-Dec-10 16:29N 33°28' W 117°42'0 0.0
2017-Dec-10 15:51N 33°28' W 117°42'0 0.0
2017-Dec-10 15:30N 33°28' W 117°42'0 0.0
2017-Dec-10 15:00N 33°28' W 117°42'0 0.0
2017-Dec-10 14:27N 33°28' W 117°42'0 0.0
2017-Dec-10 13:58N 33°28' W 117°42'0 0.0
2017-Dec-10 13:25N 33°28' W 117°42'0 0.0
2017-Dec-10 12:59N 33°28' W 117°42'0 0.0
2017-Dec-10 12:30N 33°28' W 117°42'0 0.0
2017-Dec-10 11:59N 33°28' W 117°42'0 0.0
2017-Dec-10 11:26N 33°28' W 117°42'0 0.0
2017-Dec-10 10:41N 33°28' W 117°42'0 0.0
2017-Dec-10 10:27N 33°28' W 117°42'0 0.0
2017-Dec-10 09:58N 33°28' W 117°42'0 0.0
2017-Dec-10 09:26N 33°28' W 117°42'0 0.0
2017-Dec-10 09:00N 33°28' W 117°42'0 0.0
2017-Dec-10 08:30N 33°28' W 117°42'0 0.0
2017-Dec-10 07:59N 33°28' W 117°42'0 0.0
2017-Dec-10 07:28N 33°28' W 117°42'0 0.0
2017-Dec-10 06:59N 33°28' W 117°42'0 0.0
2017-Dec-10 06:30N 33°28' W 117°42'0 0.0
2017-Dec-10 05:59N 33°28' W 117°42'0 0.0
2017-Dec-10 05:30N 33°28' W 117°42'0 0.0
2017-Dec-10 04:59N 33°28' W 117°42'1 1.3
2017-Dec-10 04:30N 33°28' W 117°42'1 1.2
2017-Dec-10 04:00N 33°27' W 117°42'0 0.1
2017-Dec-10 03:27N 33°27' W 117°42'0 0.2
2017-Dec-10 02:20N 33°28' W 117°42'0 0.0
2017-Dec-10 01:59N 33°28' W 117°42'0 0.0
2017-Dec-10 01:30N 33°28' W 117°42'0 0.0
2017-Dec-10 01:00N 33°28' W 117°42'0 0.0
2017-Dec-10 00:29N 33°28' W 117°42'2 3.0
2017-Dec-09 23:59N 33°27' W 117°43'1 0.4
2017-Dec-09 22:22N 33°27' W 117°44'2 5.2
2017-Dec-09 22:00N 33°28' W 117°42'5 9.6
2017-Dec-09 21:26N 33°26' W 117°48'2 3.6
2017-Dec-09 21:00N 33°24' W 117°47'3 5.2
2017-Dec-09 20:30N 33°25' W 117°44'3 6.7
2017-Dec-09 20:00N 33°28' W 117°42'4 8.4
2017-Dec-09 19:30N 33°26' W 117°46'1 2.3
2017-Dec-09 19:00N 33°27' W 117°47'2 3.7
2017-Dec-09 18:30N 33°25' W 117°46'4 8.3
2017-Dec-09 18:01N 33°28' W 117°42'0 0.0
2017-Dec-09 17:30N 33°28' W 117°42'0 0.0
2017-Dec-09 17:00N 33°28' W 117°42'0 0.0
2017-Dec-09 16:31N 33°28' W 117°42'0 0.0
2017-Dec-09 16:01N 33°28' W 117°42'0 0.0
2017-Dec-09 15:31N 33°28' W 117°42'0 0.0
2017-Dec-09 15:00N 33°28' W 117°42'0 0.0
2017-Dec-09 14:31N 33°28' W 117°42'0 0.0
2017-Dec-09 14:00N 33°28' W 117°42'0 0.0
2017-Dec-09 13:31N 33°28' W 117°42'0 0.0
2017-Dec-09 13:01N 33°28' W 117°42'0 0.0
2017-Dec-09 12:31N 33°28' W 117°42'0 0.0
2017-Dec-09 12:01N 33°28' W 117°42'0 0.0
2017-Dec-09 11:31N 33°28' W 117°42'0 0.0
2017-Dec-09 11:00N 33°28' W 117°42'0 0.0
2017-Dec-09 10:31N 33°28' W 117°42'0 0.0
2017-Dec-09 10:00N 33°28' W 117°42'0 0.0
2017-Dec-09 09:30N 33°28' W 117°42'0 0.0
2017-Dec-09 09:00N 33°28' W 117°42'0 0.0
2017-Dec-09 08:30N 33°28' W 117°42'0 0.0
2017-Dec-09 08:00N 33°28' W 117°42'0 0.0
2017-Dec-09 07:31N 33°28' W 117°42'0 0.0
2017-Dec-09 07:00N 33°28' W 117°42'0 0.0
2017-Dec-09 06:23N 33°28' W 117°42'0 0.0
2017-Dec-09 06:00N 33°28' W 117°42'0 0.0
2017-Dec-09 05:31N 33°28' W 117°42'0 0.0
2017-Dec-09 05:01N 33°28' W 117°42'0 0.3
2017-Dec-09 04:31N 33°27' W 117°42'0 0.4
2017-Dec-09 04:01N 33°27' W 117°42'0 0.4
2017-Dec-09 03:30N 33°27' W 117°42'0 0.4
2017-Dec-09 03:01N 33°28' W 117°42'0 0.0
2017-Dec-09 02:31N 33°28' W 117°42'0 0.0
2017-Dec-09 02:00N 33°28' W 117°42'0 0.0
2017-Dec-09 01:30N 33°28' W 117°42'0 0.0
2017-Dec-09 01:00N 33°28' W 117°42'0 0.0
2017-Dec-09 00:30N 33°28' W 117°42'2 3.2
2017-Dec-09 00:00N 33°27' W 117°43'611.1
2017-Dec-08 23:29N 33°29' W 117°50'4 4.1
2017-Dec-08 22:33N 33°27' W 117°46'212.7
2017-Dec-08 22:26N 33°27' W 117°44'2 5.0
2017-Dec-08 22:00N 33°27' W 117°42'6 9.8
2017-Dec-08 21:26N 33°28' W 117°48'2 4.5
2017-Dec-08 21:01N 33°28' W 117°51'2 4.7
2017-Dec-08 20:31N 33°27' W 117°48'510.2
2017-Dec-08 20:00N 33°28' W 117°42'0 0.0
2017-Dec-08 19:31N 33°28' W 117°42'0 0.0
2017-Dec-08 19:01N 33°28' W 117°42'0 0.0
2017-Dec-08 18:31N 33°28' W 117°42'0 0.0
2017-Dec-08 18:01N 33°28' W 117°42'0 0.0
2017-Dec-08 17:30N 33°28' W 117°42'0 0.0
2017-Dec-08 17:01N 33°28' W 117°42'0 0.0
2017-Dec-08 16:31N 33°28' W 117°42'0 0.0
2017-Dec-08 16:00N 33°28' W 117°42'0 0.0
2017-Dec-08 15:31N 33°28' W 117°42'0 0.0
2017-Dec-08 15:01N 33°28' W 117°42'0 0.0
2017-Dec-08 14:30N 33°28' W 117°42'0 0.0
2017-Dec-08 14:01N 33°28' W 117°42'0 0.0
2017-Dec-08 13:30N 33°28' W 117°42'0 0.0
2017-Dec-08 13:00N 33°28' W 117°42'0 0.0
2017-Dec-08 12:20N 33°28' W 117°42'0 0.0
2017-Dec-08 12:00N 33°28' W 117°42'0 0.0
2017-Dec-08 11:29N 33°28' W 117°42'0 0.0
2017-Dec-08 10:59N 33°28' W 117°42'0 0.0
2017-Dec-08 10:25N 33°28' W 117°42'0 0.0
2017-Dec-08 09:59N 33°28' W 117°42'0 0.0
2017-Dec-08 09:29N 33°28' W 117°42'0 0.0
2017-Dec-08 09:00N 33°28' W 117°42'0 0.0
2017-Dec-08 08:30N 33°28' W 117°42'0 0.0
2017-Dec-08 07:56N 33°28' W 117°42'0 0.0
2017-Dec-08 07:25N 33°28' W 117°42'0 0.0
2017-Dec-08 06:39N 33°28' W 117°42'0 0.0
2017-Dec-08 06:19N 33°28' W 117°42'0 0.0
2017-Dec-08 05:54N 33°28' W 117°42'0 0.0
2017-Dec-08 05:12N 33°28' W 117°42'0 0.0
2017-Dec-08 04:56N 33°28' W 117°42'0 0.0
2017-Dec-08 04:21N 33°28' W 117°42'0 0.0
2017-Dec-08 03:56N 33°28' W 117°42'0 0.0
2017-Dec-08 03:22N 33°28' W 117°42'0 0.0
2017-Dec-08 02:54N 33°28' W 117°42'0 0.0
2017-Dec-08 02:23N 33°28' W 117°42'0 0.0
2017-Dec-08 01:56N 33°28' W 117°42'0 0.0
2017-Dec-08 01:25N 33°28' W 117°42'0 0.0
2017-Dec-08 00:58N 33°28' W 117°42'1 0.2
2017-Dec-07 20:08N 33°27' W 117°42'1 0.3
2017-Dec-07 17:01N 33°28' W 117°42'0 0.0
2017-Dec-07 16:55N 33°28' W 117°42'0 0.0
2017-Dec-07 16:30N 33°28' W 117°42'0 0.0
2017-Dec-07 15:56N 33°28' W 117°42'0 0.0
2017-Dec-07 15:30N 33°28' W 117°42'0 0.0
2017-Dec-07 15:00N 33°28' W 117°42'0 0.0
2017-Dec-07 14:30N 33°28' W 117°42'0 0.0
2017-Dec-07 14:00N 33°28' W 117°42'0 0.0
2017-Dec-07 13:30N 33°28' W 117°42'0 0.0
2017-Dec-07 13:00N 33°28' W 117°42'0 0.0
2017-Dec-07 12:28N 33°28' W 117°42'0 0.0
2017-Dec-07 12:00N 33°28' W 117°42'0 0.0
2017-Dec-07 11:29N 33°28' W 117°42'0 0.0
2017-Dec-07 11:00N 33°28' W 117°42'0 0.0
2017-Dec-07 10:29N 33°28' W 117°42'0 0.0
2017-Dec-07 10:00N 33°28' W 117°42'0 0.0
2017-Dec-07 09:30N 33°28' W 117°42'0 0.0
2017-Dec-07 09:00N 33°28' W 117°42'0 0.0
2017-Dec-07 08:30N 33°28' W 117°42'0 0.0
2017-Dec-07 08:01N 33°28' W 117°42'0 0.0
2017-Dec-07 07:30N 33°28' W 117°42'0 0.0
2017-Dec-07 07:00N 33°28' W 117°42'0 0.0
2017-Dec-07 06:31N 33°28' W 117°42'0 0.0
2017-Dec-07 05:59N 33°28' W 117°42'0 0.0
2017-Dec-07 05:30N 33°28' W 117°42'0 0.0
2017-Dec-07 05:00N 33°28' W 117°42'0 0.0
2017-Dec-07 04:30N 33°28' W 117°42'0 0.0
2017-Dec-07 04:00N 33°28' W 117°42'0 0.0
2017-Dec-07 03:28N 33°28' W 117°42'0 0.0
2017-Dec-07 03:01N 33°28' W 117°42'0 0.0
2017-Dec-07 02:30N 33°28' W 117°42'0 0.0
2017-Dec-07 02:00N 33°28' W 117°42'0 0.0
2017-Dec-07 01:30N 33°28' W 117°42'0 0.0
2017-Dec-07 01:00N 33°28' W 117°42'0 0.0
2017-Dec-07 00:30N 33°28' W 117°42'0 0.0
2017-Dec-07 00:00N 33°28' W 117°42'0 0.0
2017-Dec-06 23:30N 33°28' W 117°42'0 0.0
2017-Dec-06 23:00N 33°28' W 117°42'0 0.0
2017-Dec-06 22:30N 33°28' W 117°42'1 1.2
2017-Dec-06 22:00N 33°27' W 117°42'1 1.7
2017-Dec-06 21:30N 33°27' W 117°43'3 5.8
2017-Dec-06 20:56N 33°26' W 117°47'  
2017-Dec-04 10:24N 33°28' W 117°42'0 0.0
2017-Dec-04 09:54N 33°28' W 117°42'0 0.0
2017-Dec-04 09:27N 33°28' W 117°42'0 0.0
2017-Dec-04 09:00N 33°28' W 117°42'0 0.0
2017-Dec-04 08:29N 33°28' W 117°42'0 0.0
2017-Dec-04 07:56N 33°28' W 117°42'0 0.0
2017-Dec-04 07:30N 33°28' W 117°42'0 0.0
2017-Dec-04 06:57N 33°28' W 117°42'0 0.0
2017-Dec-04 06:29N 33°28' W 117°42'0 0.0
2017-Dec-04 05:57N 33°28' W 117°42'0 0.0
2017-Dec-04 05:23N 33°28' W 117°42'0 0.0
2017-Dec-04 04:38N 33°28' W 117°42'0 0.0
2017-Dec-04 04:30N 33°28' W 117°42'0 0.0
2017-Dec-04 03:47N 33°28' W 117°42'0 0.0
2017-Dec-04 03:28N 33°28' W 117°42'0 0.0
2017-Dec-04 02:41N 33°28' W 117°42'0 0.0
2017-Dec-04 02:28N 33°28' W 117°42'0 0.0
2017-Dec-04 02:00N 33°28' W 117°42'0 0.0
2017-Dec-04 01:30N 33°28' W 117°42'0 0.0
2017-Dec-04 01:00N 33°28' W 117°42'0 0.0
2017-Dec-04 00:30N 33°28' W 117°42'0 0.0
2017-Dec-04 00:00N 33°28' W 117°42'0 0.0
2017-Dec-03 23:30N 33°28' W 117°42'0 0.0
2017-Dec-03 23:00N 33°28' W 117°42'0 0.0
2017-Dec-03 22:30N 33°28' W 117°42'0 0.0
2017-Dec-03 22:00N 33°28' W 117°42'0 0.3
2017-Dec-03 21:23N 33°27' W 117°42'0 0.1
2017-Dec-03 20:43N 33°27' W 117°42'0 0.6
2017-Dec-03 20:26N 33°28' W 117°42'0 0.0
2017-Dec-03 19:58N 33°28' W 117°42'0 0.7
2017-Dec-03 19:26N 33°27' W 117°42'0 0.1
2017-Dec-03 18:58N 33°27' W 117°42'0 0.0
2017-Dec-03 05:44N 33°28' W 117°42'0 0.0
2017-Dec-03 05:26N 33°28' W 117°42'0 0.0
2017-Dec-03 04:59N 33°28' W 117°42'0 0.0
2017-Dec-03 04:23N 33°28' W 117°42'0 0.0
2017-Dec-03 03:57N 33°28' W 117°42'0 0.0
2017-Dec-03 03:28N 33°28' W 117°42'0 0.0
2017-Dec-03 02:59N 33°28' W 117°42'0 0.0
2017-Dec-03 02:28N 33°28' W 117°42'0 0.0
2017-Dec-03 02:00N 33°28' W 117°42'0 0.0
2017-Dec-03 01:30N 33°28' W 117°42'0 0.0
2017-Dec-03 01:00N 33°28' W 117°42'0 0.0
2017-Dec-03 00:30N 33°28' W 117°42'0 0.0
2017-Dec-03 00:00N 33°28' W 117°42'0 0.0
2017-Dec-02 23:30N 33°28' W 117°42'0 0.0
2017-Dec-02 23:00N 33°28' W 117°42'0 0.0
2017-Dec-02 22:30N 33°28' W 117°42'0 0.0
2017-Dec-02 22:00N 33°28' W 117°42'0 0.6
2017-Dec-02 21:30N 33°27' W 117°42'0 0.3
2017-Dec-02 21:00N 33°27' W 117°42'0 0.9
2017-Dec-02 20:30N 33°28' W 117°42'0 0.3
2017-Dec-02 20:00N 33°27' W 117°42'0 0.4
2017-Dec-02 19:30N 33°27' W 117°42'0 0.7
2017-Dec-02 19:00N 33°28' W 117°42'1 1.2
2017-Dec-02 18:30N 33°28' W 117°42'0 0.0
2017-Dec-02 18:01N 33°28' W 117°42'0 0.0
2017-Dec-02 17:30N 33°28' W 117°42'0 0.0
2017-Dec-02 16:56N 33°28' W 117°42'0 0.0
2017-Dec-02 16:29N 33°28' W 117°42'0 0.0
2017-Dec-02 16:00N 33°28' W 117°42'0 0.0
2017-Dec-02 15:29N 33°28' W 117°42'0 0.0
2017-Dec-02 15:00N 33°28' W 117°42'0 0.0
2017-Dec-02 14:30N 33°28' W 117°42'0 0.0
2017-Dec-02 13:30N 33°28' W 117°42'0 0.0
2017-Dec-02 13:00N 33°28' W 117°42'0 0.0
2017-Dec-02 12:29N 33°28' W 117°42'0 0.0
2017-Dec-02 12:00N 33°28' W 117°42'0 0.0
2017-Dec-02 11:30N 33°28' W 117°42'0 0.0
2017-Dec-02 11:00N 33°28' W 117°42'0 0.0
2017-Dec-02 10:29N 33°28' W 117°42'0 0.0
2017-Dec-02 06:36N 33°28' W 117°42'0 0.0
2017-Dec-02 06:26N 33°28' W 117°42'0 0.0
2017-Dec-02 05:57N 33°28' W 117°42'0 0.0
2017-Dec-02 05:29N 33°28' W 117°42'0 0.0
2017-Dec-02 05:00N 33°28' W 117°42'0 0.0
2017-Dec-02 04:30N 33°28' W 117°42'0 0.0
2017-Dec-02 04:00N 33°28' W 117°42'0 0.0
2017-Dec-02 03:30N 33°28' W 117°42'0 0.0
2017-Dec-02 03:00N 33°28' W 117°42'0 0.0
2017-Dec-02 02:29N 33°28' W 117°42'0 0.0
2017-Dec-02 02:00N 33°28' W 117°42'0 0.0
2017-Dec-02 01:30N 33°28' W 117°42'0 0.0
2017-Dec-02 01:00N 33°28' W 117°42'0 0.0
2017-Dec-02 00:30N 33°28' W 117°42'0 0.6
2017-Dec-02 00:00N 33°27' W 117°41'611.1
2017-Dec-01 23:30N 33°27' W 117°48'4 7.4
2017-Dec-01 23:00N 33°23' W 117°47'4 8.7
2017-Dec-01 22:30N 33°25' W 117°43'2 4.1
2017-Dec-01 22:00N 33°27' W 117°42'613.1
2017-Dec-01 21:31N 33°27' W 117°50'2 2.9
2017-Dec-01 20:58N 33°27' W 117°51'510.0
2017-Dec-01 20:30N 33°27' W 117°46'4 7.5
2017-Dec-01 20:00N 33°28' W 117°42'0 0.0
2017-Dec-01 19:30N 33°28' W 117°42'0 0.0
2017-Dec-01 19:00N 33°28' W 117°42'0 0.0
2017-Dec-01 18:30N 33°28' W 117°42'0 0.0
2017-Dec-01 18:00N 33°28' W 117°42'0 0.0
2017-Dec-01 17:30N 33°28' W 117°42'0 0.0
2017-Dec-01 16:53N 33°28' W 117°42'0 0.0
2017-Dec-01 16:20N 33°28' W 117°42'0 0.0
2017-Dec-01 15:59N 33°28' W 117°42'0 0.0
2017-Dec-01 15:28N 33°28' W 117°42'0 0.0
2017-Dec-01 15:00N 33°28' W 117°42'0 0.0
2017-Dec-01 14:29N 33°28' W 117°42'0 0.0
2017-Dec-01 13:45N 33°28' W 117°42'0 0.0
2017-Dec-01 13:29N 33°28' W 117°42'0 0.0
2017-Dec-01 13:00N 33°28' W 117°42'0 0.0
2017-Dec-01 12:30N 33°28' W 117°42'0 0.0
2017-Dec-01 12:00N 33°28' W 117°42'0 0.0
2017-Dec-01 11:30N 33°28' W 117°42'0 0.0
2017-Dec-01 10:59N 33°28' W 117°42'0 0.0
2017-Dec-01 10:29N 33°28' W 117°42'0 0.0
2017-Dec-01 10:00N 33°28' W 117°42'0 0.0
2017-Dec-01 09:30N 33°28' W 117°42'0 0.0
2017-Dec-01 09:00N 33°28' W 117°42'0 0.0
2017-Dec-01 08:24N 33°28' W 117°42'0 0.0
2017-Dec-01 08:00N 33°28' W 117°42'0 0.0
2017-Dec-01 07:30N 33°28' W 117°42'0 0.0
2017-Dec-01 06:39N 33°28' W 117°42'0 0.0
2017-Dec-01 06:29N 33°28' W 117°42'0 0.0
2017-Dec-01 05:57N 33°28' W 117°42'0 0.0
2017-Dec-01 05:13N 33°28' W 117°42'0 0.0
2017-Dec-01 05:00N 33°28' W 117°42'0 0.0
2017-Dec-01 04:29N 33°28' W 117°42'0 0.0
2017-Dec-01 03:53N 33°28' W 117°42'0 0.0
2017-Dec-01 03:30N 33°28' W 117°42'0 0.0
2017-Dec-01 03:00N 33°28' W 117°42'0 0.0
2017-Dec-01 02:30N 33°28' W 117°42'0 0.0
2017-Dec-01 01:50N 33°28' W 117°42'0 0.0
2017-Dec-01 01:30N 33°28' W 117°42'0 0.0
2017-Dec-01 00:54N 33°28' W 117°42'0 0.0
2017-Dec-01 00:30N 33°28' W 117°42'0 0.0
2017-Nov-30 23:59N 33°28' W 117°42'0 0.0
2017-Nov-30 23:30N 33°28' W 117°42'0 0.0
2017-Nov-30 23:00N 33°28' W 117°42'0 0.0
2017-Nov-30 22:30N 33°28' W 117°42'  
Track history (hours):
 
Tides and Currents Weather Stations Pressure Air Temp Water Temp Dewpoint Dewpoint Depression Visibility Wind Speed Wind Dir Waves Ship Positions

Dana Pride

Last reported at 2017-Dec-10 22:14 UTC. Time now 2017-Dec-11 11:27 UTC.
Position N 33°26' W 117°43'.

Type: Fishing. MMSI: 366849310.

Date/timePositionNaut miles runAvg speedWind from/ knotsBaromVisibWave heightAir tempDewpointWater temp
2017-Dec-10 22:14N 33°26' W 117°43'0 0.2
2017-Dec-10 20:35N 33°26' W 117°43'111.0
2017-Dec-10 20:30N 33°27' W 117°42'4 2.7
2017-Dec-10 19:11N 33°25' W 117°46'212.1
2017-Dec-10 18:59N 33°24' W 117°45'0 0.5
2017-Dec-10 18:30N 33°23' W 117°45'5 9.9
2017-Dec-10 18:00N 33°28' W 117°42'0 0.0
2017-Dec-10 17:30N 33°28' W 117°42'0 0.0
2017-Dec-10 16:59N 33°28' W 117°42'0 0.0
2017-Dec-10 16:29N 33°28' W 117°42'0 0.0
2017-Dec-10 15:51N 33°28' W 117°42'0 0.0
2017-Dec-10 15:30N 33°28' W 117°42'0 0.0
2017-Dec-10 15:00N 33°28' W 117°42'0 0.0
2017-Dec-10 14:27N 33°28' W 117°42'0 0.0
2017-Dec-10 13:58N 33°28' W 117°42'0 0.0
2017-Dec-10 13:25N 33°28' W 117°42'0 0.0
2017-Dec-10 12:59N 33°28' W 117°42'0 0.0
2017-Dec-10 12:30N 33°28' W 117°42'0 0.0
2017-Dec-10 11:59N 33°28' W 117°42'0 0.0
2017-Dec-10 11:26N 33°28' W 117°42'0 0.0
2017-Dec-10 10:41N 33°28' W 117°42'0 0.0
2017-Dec-10 10:27N 33°28' W 117°42'0 0.0
2017-Dec-10 09:58N 33°28' W 117°42'0 0.0
2017-Dec-10 09:26N 33°28' W 117°42'0 0.0
2017-Dec-10 09:00N 33°28' W 117°42'0 0.0
2017-Dec-10 08:30N 33°28' W 117°42'0 0.0
2017-Dec-10 07:59N 33°28' W 117°42'0 0.0
2017-Dec-10 07:28N 33°28' W 117°42'0 0.0
2017-Dec-10 06:59N 33°28' W 117°42'0 0.0
2017-Dec-10 06:30N 33°28' W 117°42'0 0.0
2017-Dec-10 05:59N 33°28' W 117°42'0 0.0
2017-Dec-10 05:30N 33°28' W 117°42'0 0.0
2017-Dec-10 04:59N 33°28' W 117°42'1 1.3
2017-Dec-10 04:30N 33°28' W 117°42'1 1.2
2017-Dec-10 04:00N 33°27' W 117°42'0 0.1
2017-Dec-10 03:27N 33°27' W 117°42'0 0.2
2017-Dec-10 02:20N 33°28' W 117°42'0 0.0
2017-Dec-10 01:59N 33°28' W 117°42'0 0.0
2017-Dec-10 01:30N 33°28' W 117°42'0 0.0
2017-Dec-10 01:00N 33°28' W 117°42'0 0.0
2017-Dec-10 00:29N 33°28' W 117°42'2 3.0
2017-Dec-09 23:59N 33°27' W 117°43'1 0.4
2017-Dec-09 22:22N 33°27' W 117°44'2 5.2
2017-Dec-09 22:00N 33°28' W 117°42'5 9.6
2017-Dec-09 21:26N 33°26' W 117°48'2 3.6
2017-Dec-09 21:00N 33°24' W 117°47'3 5.2
2017-Dec-09 20:30N 33°25' W 117°44'3 6.7
2017-Dec-09 20:00N 33°28' W 117°42'4 8.4
2017-Dec-09 19:30N 33°26' W 117°46'1 2.3
2017-Dec-09 19:00N 33°27' W 117°47'2 3.7
2017-Dec-09 18:30N 33°25' W 117°46'4 8.3
2017-Dec-09 18:01N 33°28' W 117°42'0 0.0
2017-Dec-09 17:30N 33°28' W 117°42'0 0.0
2017-Dec-09 17:00N 33°28' W 117°42'0 0.0
2017-Dec-09 16:31N 33°28' W 117°42'0 0.0
2017-Dec-09 16:01N 33°28' W 117°42'0 0.0
2017-Dec-09 15:31N 33°28' W 117°42'0 0.0
2017-Dec-09 15:00N 33°28' W 117°42'0 0.0
2017-Dec-09 14:31N 33°28' W 117°42'0 0.0
2017-Dec-09 14:00N 33°28' W 117°42'0 0.0
2017-Dec-09 13:31N 33°28' W 117°42'0 0.0
2017-Dec-09 13:01N 33°28' W 117°42'0 0.0
2017-Dec-09 12:31N 33°28' W 117°42'0 0.0
2017-Dec-09 12:01N 33°28' W 117°42'0 0.0
2017-Dec-09 11:31N 33°28' W 117°42'0 0.0
2017-Dec-09 11:00N 33°28' W 117°42'0 0.0
2017-Dec-09 10:31N 33°28' W 117°42'0 0.0
2017-Dec-09 10:00N 33°28' W 117°42'0 0.0
2017-Dec-09 09:30N 33°28' W 117°42'0 0.0
2017-Dec-09 09:00N 33°28' W 117°42'0 0.0
2017-Dec-09 08:30N 33°28' W 117°42'0 0.0
2017-Dec-09 08:00N 33°28' W 117°42'0 0.0
2017-Dec-09 07:31N 33°28' W 117°42'0 0.0
2017-Dec-09 07:00N 33°28' W 117°42'0 0.0
2017-Dec-09 06:23N 33°28' W 117°42'0 0.0
2017-Dec-09 06:00N 33°28' W 117°42'0 0.0
2017-Dec-09 05:31N 33°28' W 117°42'0 0.0
2017-Dec-09 05:01N 33°28' W 117°42'0 0.3
2017-Dec-09 04:31N 33°27' W 117°42'0 0.4
2017-Dec-09 04:01N 33°27' W 117°42'0 0.4
2017-Dec-09 03:30N 33°27' W 117°42'0 0.4
2017-Dec-09 03:01N 33°28' W 117°42'0 0.0
2017-Dec-09 02:31N 33°28' W 117°42'0 0.0
2017-Dec-09 02:00N 33°28' W 117°42'0 0.0
2017-Dec-09 01:30N 33°28' W 117°42'0 0.0
2017-Dec-09 01:00N 33°28' W 117°42'0 0.0
2017-Dec-09 00:30N 33°28' W 117°42'2 3.2
2017-Dec-09 00:00N 33°27' W 117°43'611.1
2017-Dec-08 23:29N 33°29' W 117°50'4 4.1
2017-Dec-08 22:33N 33°27' W 117°46'212.7
2017-Dec-08 22:26N 33°27' W 117°44'2 5.0
2017-Dec-08 22:00N 33°27' W 117°42'6 9.8
2017-Dec-08 21:26N 33°28' W 117°48'2 4.5
2017-Dec-08 21:01N 33°28' W 117°51'2 4.7
2017-Dec-08 20:31N 33°27' W 117°48'510.2
2017-Dec-08 20:00N 33°28' W 117°42'0 0.0
2017-Dec-08 19:31N 33°28' W 117°42'0 0.0
2017-Dec-08 19:01N 33°28' W 117°42'0 0.0
2017-Dec-08 18:31N 33°28' W 117°42'0 0.0
2017-Dec-08 18:01N 33°28' W 117°42'0 0.0
2017-Dec-08 17:30N 33°28' W 117°42'0 0.0
2017-Dec-08 17:01N 33°28' W 117°42'0 0.0
2017-Dec-08 16:31N 33°28' W 117°42'0 0.0
2017-Dec-08 16:00N 33°28' W 117°42'0 0.0
2017-Dec-08 15:31N 33°28' W 117°42'0 0.0
2017-Dec-08 15:01N 33°28' W 117°42'0 0.0
2017-Dec-08 14:30N 33°28' W 117°42'0 0.0
2017-Dec-08 14:01N 33°28' W 117°42'0 0.0
2017-Dec-08 13:30N 33°28' W 117°42'0 0.0
2017-Dec-08 13:00N 33°28' W 117°42'0 0.0
2017-Dec-08 12:20N 33°28' W 117°42'0 0.0
2017-Dec-08 12:00N 33°28' W 117°42'0 0.0
2017-Dec-08 11:29N 33°28' W 117°42'0 0.0
2017-Dec-08 10:59N 33°28' W 117°42'0 0.0
2017-Dec-08 10:25N 33°28' W 117°42'0 0.0
2017-Dec-08 09:59N 33°28' W 117°42'0 0.0
2017-Dec-08 09:29N 33°28' W 117°42'0 0.0
2017-Dec-08 09:00N 33°28' W 117°42'0 0.0
2017-Dec-08 08:30N 33°28' W 117°42'0 0.0
2017-Dec-08 07:56N 33°28' W 117°42'0 0.0
2017-Dec-08 07:25N 33°28' W 117°42'0 0.0
2017-Dec-08 06:39N 33°28' W 117°42'0 0.0
2017-Dec-08 06:19N 33°28' W 117°42'0 0.0
2017-Dec-08 05:54N 33°28' W 117°42'0 0.0
2017-Dec-08 05:12N 33°28' W 117°42'0 0.0
2017-Dec-08 04:56N 33°28' W 117°42'0 0.0
2017-Dec-08 04:21N 33°28' W 117°42'0 0.0
2017-Dec-08 03:56N 33°28' W 117°42'0 0.0
2017-Dec-08 03:22N 33°28' W 117°42'0 0.0
2017-Dec-08 02:54N 33°28' W 117°42'0 0.0
2017-Dec-08 02:23N 33°28' W 117°42'0 0.0
2017-Dec-08 01:56N 33°28' W 117°42'0 0.0
2017-Dec-08 01:25N 33°28' W 117°42'0 0.0
2017-Dec-08 00:58N 33°28' W 117°42'1 0.2
2017-Dec-07 20:08N 33°27' W 117°42'1 0.3
2017-Dec-07 17:01N 33°28' W 117°42'0 0.0
2017-Dec-07 16:55N 33°28' W 117°42'0 0.0
2017-Dec-07 16:30N 33°28' W 117°42'0 0.0
2017-Dec-07 15:56N 33°28' W 117°42'0 0.0
2017-Dec-07 15:30N 33°28' W 117°42'0 0.0
2017-Dec-07 15:00N 33°28' W 117°42'0 0.0
2017-Dec-07 14:30N 33°28' W 117°42'0 0.0
2017-Dec-07 14:00N 33°28' W 117°42'0 0.0
2017-Dec-07 13:30N 33°28' W 117°42'0 0.0
2017-Dec-07 13:00N 33°28' W 117°42'0 0.0
2017-Dec-07 12:28N 33°28' W 117°42'0 0.0
2017-Dec-07 12:00N 33°28' W 117°42'0 0.0
2017-Dec-07 11:29N 33°28' W 117°42'0 0.0
2017-Dec-07 11:00N 33°28' W 117°42'0 0.0
2017-Dec-07 10:29N 33°28' W 117°42'0 0.0
2017-Dec-07 10:00N 33°28' W 117°42'0 0.0
2017-Dec-07 09:30N 33°28' W 117°42'0 0.0
2017-Dec-07 09:00N 33°28' W 117°42'0 0.0
2017-Dec-07 08:30N 33°28' W 117°42'0 0.0
2017-Dec-07 08:01N 33°28' W 117°42'0 0.0
2017-Dec-07 07:30N 33°28' W 117°42'0 0.0
2017-Dec-07 07:00N 33°28' W 117°42'0 0.0
2017-Dec-07 06:31N 33°28' W 117°42'0 0.0
2017-Dec-07 05:59N 33°28' W 117°42'0 0.0
2017-Dec-07 05:30N 33°28' W 117°42'0 0.0
2017-Dec-07 05:00N 33°28' W 117°42'0 0.0
2017-Dec-07 04:30N 33°28' W 117°42'0 0.0
2017-Dec-07 04:00N 33°28' W 117°42'0 0.0
2017-Dec-07 03:28N 33°28' W 117°42'0 0.0
2017-Dec-07 03:01N 33°28' W 117°42'0 0.0
2017-Dec-07 02:30N 33°28' W 117°42'0 0.0
2017-Dec-07 02:00N 33°28' W 117°42'0 0.0
2017-Dec-07 01:30N 33°28' W 117°42'0 0.0
2017-Dec-07 01:00N 33°28' W 117°42'0 0.0
2017-Dec-07 00:30N 33°28' W 117°42'0 0.0
2017-Dec-07 00:00N 33°28' W 117°42'0 0.0
2017-Dec-06 23:30N 33°28' W 117°42'0 0.0
2017-Dec-06 23:00N 33°28' W 117°42'0 0.0
2017-Dec-06 22:30N 33°28' W 117°42'1 1.2
2017-Dec-06 22:00N 33°27' W 117°42'1 1.7
2017-Dec-06 21:30N 33°27' W 117°43'3 5.8
2017-Dec-06 20:56N 33°26' W 117°47'  
2017-Dec-04 10:24N 33°28' W 117°42'0 0.0
2017-Dec-04 09:54N 33°28' W 117°42'0 0.0
2017-Dec-04 09:27N 33°28' W 117°42'0 0.0
2017-Dec-04 09:00N 33°28' W 117°42'0 0.0
2017-Dec-04 08:29N 33°28' W 117°42'0 0.0
2017-Dec-04 07:56N 33°28' W 117°42'0 0.0
2017-Dec-04 07:30N 33°28' W 117°42'0 0.0
2017-Dec-04 06:57N 33°28' W 117°42'0 0.0
2017-Dec-04 06:29N 33°28' W 117°42'0 0.0
2017-Dec-04 05:57N 33°28' W 117°42'0 0.0
2017-Dec-04 05:23N 33°28' W 117°42'0 0.0
2017-Dec-04 04:38N 33°28' W 117°42'0 0.0
2017-Dec-04 04:30N 33°28' W 117°42'0 0.0
2017-Dec-04 03:47N 33°28' W 117°42'0 0.0
2017-Dec-04 03:28N 33°28' W 117°42'0 0.0
2017-Dec-04 02:41N 33°28' W 117°42'0 0.0
2017-Dec-04 02:28N 33°28' W 117°42'0 0.0
2017-Dec-04 02:00N 33°28' W 117°42'0 0.0
2017-Dec-04 01:30N 33°28' W 117°42'0 0.0
2017-Dec-04 01:00N 33°28' W 117°42'0 0.0
2017-Dec-04 00:30N 33°28' W 117°42'0 0.0
2017-Dec-04 00:00N 33°28' W 117°42'0 0.0
2017-Dec-03 23:30N 33°28' W 117°42'0 0.0
2017-Dec-03 23:00N 33°28' W 117°42'0 0.0
2017-Dec-03 22:30N 33°28' W 117°42'0 0.0
2017-Dec-03 22:00N 33°28' W 117°42'0 0.3
2017-Dec-03 21:23N 33°27' W 117°42'0 0.1
2017-Dec-03 20:43N 33°27' W 117°42'0 0.6
2017-Dec-03 20:26N 33°28' W 117°42'0 0.0
2017-Dec-03 19:58N 33°28' W 117°42'0 0.7
2017-Dec-03 19:26N 33°27' W 117°42'0 0.1
2017-Dec-03 18:58N 33°27' W 117°42'0 0.0
2017-Dec-03 05:44N 33°28' W 117°42'0 0.0
2017-Dec-03 05:26N 33°28' W 117°42'0 0.0
2017-Dec-03 04:59N 33°28' W 117°42'0 0.0
2017-Dec-03 04:23N 33°28' W 117°42'0 0.0
2017-Dec-03 03:57N 33°28' W 117°42'0 0.0
2017-Dec-03 03:28N 33°28' W 117°42'0 0.0
2017-Dec-03 02:59N 33°28' W 117°42'0 0.0
2017-Dec-03 02:28N 33°28' W 117°42'0 0.0
2017-Dec-03 02:00N 33°28' W 117°42'0 0.0
2017-Dec-03 01:30N 33°28' W 117°42'0 0.0
2017-Dec-03 01:00N 33°28' W 117°42'0 0.0
2017-Dec-03 00:30N 33°28' W 117°42'0 0.0
2017-Dec-03 00:00N 33°28' W 117°42'0 0.0
2017-Dec-02 23:30N 33°28' W 117°42'0 0.0
2017-Dec-02 23:00N 33°28' W 117°42'0 0.0
2017-Dec-02 22:30N 33°28' W 117°42'0 0.0
2017-Dec-02 22:00N 33°28' W 117°42'0 0.6
2017-Dec-02 21:30N 33°27' W 117°42'0 0.3
2017-Dec-02 21:00N 33°27' W 117°42'0 0.9
2017-Dec-02 20:30N 33°28' W 117°42'0 0.3
2017-Dec-02 20:00N 33°27' W 117°42'0 0.4
2017-Dec-02 19:30N 33°27' W 117°42'0 0.7
2017-Dec-02 19:00N 33°28' W 117°42'1 1.2
2017-Dec-02 18:30N 33°28' W 117°42'0 0.0
2017-Dec-02 18:01N 33°28' W 117°42'0 0.0
2017-Dec-02 17:30N 33°28' W 117°42'0 0.0
2017-Dec-02 16:56N 33°28' W 117°42'0 0.0
2017-Dec-02 16:29N 33°28' W 117°42'0 0.0
2017-Dec-02 16:00N 33°28' W 117°42'0 0.0
2017-Dec-02 15:29N 33°28' W 117°42'0 0.0
2017-Dec-02 15:00N 33°28' W 117°42'0 0.0
2017-Dec-02 14:30N 33°28' W 117°42'0 0.0
2017-Dec-02 13:30N 33°28' W 117°42'0 0.0
2017-Dec-02 13:00N 33°28' W 117°42'0 0.0
2017-Dec-02 12:29N 33°28' W 117°42'0 0.0
2017-Dec-02 12:00N 33°28' W 117°42'0 0.0
2017-Dec-02 11:30N 33°28' W 117°42'0 0.0
2017-Dec-02 11:00N 33°28' W 117°42'0 0.0
2017-Dec-02 10:29N 33°28' W 117°42'0 0.0
2017-Dec-02 06:36N 33°28' W 117°42'0 0.0
2017-Dec-02 06:26N 33°28' W 117°42'0 0.0
2017-Dec-02 05:57N 33°28' W 117°42'0 0.0
2017-Dec-02 05:29N 33°28' W 117°42'0 0.0
2017-Dec-02 05:00N 33°28' W 117°42'0 0.0
2017-Dec-02 04:30N 33°28' W 117°42'0 0.0
2017-Dec-02 04:00N 33°28' W 117°42'0 0.0
2017-Dec-02 03:30N 33°28' W 117°42'0 0.0
2017-Dec-02 03:00N 33°28' W 117°42'0 0.0
2017-Dec-02 02:29N 33°28' W 117°42'0 0.0
2017-Dec-02 02:00N 33°28' W 117°42'0 0.0
2017-Dec-02 01:30N 33°28' W 117°42'0 0.0
2017-Dec-02 01:00N 33°28' W 117°42'0 0.0
2017-Dec-02 00:30N 33°28' W 117°42'0 0.6
2017-Dec-02 00:00N 33°27' W 117°41'611.1
2017-Dec-01 23:30N 33°27' W 117°48'4 7.4
2017-Dec-01 23:00N 33°23' W 117°47'4 8.7
2017-Dec-01 22:30N 33°25' W 117°43'2 4.1
2017-Dec-01 22:00N 33°27' W 117°42'613.1
2017-Dec-01 21:31N 33°27' W 117°50'2 2.9
2017-Dec-01 20:58N 33°27' W 117°51'510.0
2017-Dec-01 20:30N 33°27' W 117°46'4 7.5
2017-Dec-01 20:00N 33°28' W 117°42'0 0.0
2017-Dec-01 19:30N 33°28' W 117°42'0 0.0
2017-Dec-01 19:00N 33°28' W 117°42'0 0.0
2017-Dec-01 18:30N 33°28' W 117°42'0 0.0
2017-Dec-01 18:00N 33°28' W 117°42'0 0.0
2017-Dec-01 17:30N 33°28' W 117°42'0 0.0
2017-Dec-01 16:53N 33°28' W 117°42'0 0.0
2017-Dec-01 16:20N 33°28' W 117°42'0 0.0
2017-Dec-01 15:59N 33°28' W 117°42'0 0.0
2017-Dec-01 15:28N 33°28' W 117°42'0 0.0
2017-Dec-01 15:00N 33°28' W 117°42'0 0.0
2017-Dec-01 14:29N 33°28' W 117°42'0 0.0
2017-Dec-01 13:45N 33°28' W 117°42'0 0.0
2017-Dec-01 13:29N 33°28' W 117°42'0 0.0
2017-Dec-01 13:00N 33°28' W 117°42'0 0.0
2017-Dec-01 12:30N 33°28' W 117°42'0 0.0
2017-Dec-01 12:00N 33°28' W 117°42'0 0.0
2017-Dec-01 11:30N 33°28' W 117°42'0 0.0
2017-Dec-01 10:59N 33°28' W 117°42'0 0.0
2017-Dec-01 10:29N 33°28' W 117°42'0 0.0
2017-Dec-01 10:00N 33°28' W 117°42'0 0.0
2017-Dec-01 09:30N 33°28' W 117°42'0 0.0
2017-Dec-01 09:00N 33°28' W 117°42'0 0.0
2017-Dec-01 08:24N 33°28' W 117°42'0 0.0
2017-Dec-01 08:00N 33°28' W 117°42'0 0.0
2017-Dec-01 07:30N 33°28' W 117°42'0 0.0
2017-Dec-01 06:39N 33°28' W 117°42'0 0.0
2017-Dec-01 06:29N 33°28' W 117°42'0 0.0
2017-Dec-01 05:57N 33°28' W 117°42'0 0.0
2017-Dec-01 05:13N 33°28' W 117°42'0 0.0
2017-Dec-01 05:00N 33°28' W 117°42'0 0.0
2017-Dec-01 04:29N 33°28' W 117°42'0 0.0
2017-Dec-01 03:53N 33°28' W 117°42'0 0.0
2017-Dec-01 03:30N 33°28' W 117°42'0 0.0
2017-Dec-01 03:00N 33°28' W 117°42'0 0.0
2017-Dec-01 02:30N 33°28' W 117°42'0 0.0
2017-Dec-01 01:50N 33°28' W 117°42'0 0.0
2017-Dec-01 01:30N 33°28' W 117°42'0 0.0
2017-Dec-01 00:54N 33°28' W 117°42'0 0.0
2017-Dec-01 00:30N 33°28' W 117°42'0 0.0
2017-Nov-30 23:59N 33°28' W 117°42'0 0.0
2017-Nov-30 23:30N 33°28' W 117°42'0 0.0
2017-Nov-30 23:00N 33°28' W 117°42'0 0.0
2017-Nov-30 22:30N 33°28' W 117°42'  

Dump ship's entire track history